createdAt,value
2022-10-17T00:00:44.166Z,-144.00
2022-10-17T00:05:51.377Z,-144.00
2022-10-17T00:10:58.633Z,-108.00
2022-10-17T00:16:05.870Z,-144.00
2022-10-17T00:21:13.047Z,-144.00
2022-10-17T00:26:20.286Z,-144.00
2022-10-17T00:31:27.449Z,-108.00
2022-10-17T00:36:34.674Z,-108.00
2022-10-17T00:41:41.923Z,-108.00
2022-10-17T00:46:49.209Z,-144.00
2022-10-17T00:51:56.388Z,-144.00
2022-10-17T00:57:03.628Z,-108.00
2022-10-17T01:02:10.810Z,-108.00
2022-10-17T01:07:18.017Z,-108.00
2022-10-17T01:12:25.570Z,-108.00
2022-10-17T01:17:32.418Z,-108.00
2022-10-17T01:22:39.617Z,-108.00
2022-10-17T01:27:49.523Z,-144.00
2022-10-17T01:32:56.788Z,-144.00
2022-10-17T01:38:04.005Z,-108.00
2022-10-17T01:43:11.243Z,-108.00
2022-10-17T01:48:18.463Z,-108.00
2022-10-17T01:53:25.777Z,-144.00
2022-10-17T01:58:33.011Z,-144.00
2022-10-17T02:03:40.181Z,-144.00
2022-10-17T02:08:47.392Z,-108.00
2022-10-17T02:13:54.657Z,-144.00
2022-10-17T02:19:02.261Z,-108.00
2022-10-17T02:24:09.465Z,-108.00
2022-10-17T02:29:16.707Z,-144.00
2022-10-17T02:34:23.862Z,-108.00
2022-10-17T02:39:31.092Z,-144.00
2022-10-17T02:44:38.411Z,-144.00
2022-10-17T02:49:45.584Z,-108.00
2022-10-17T02:54:52.874Z,-144.00
2022-10-17T03:00:00.198Z,-144.00
2022-10-17T03:05:07.379Z,-144.00
2022-10-17T03:10:14.621Z,-144.00
2022-10-17T03:15:21.844Z,-108.00
2022-10-17T03:20:29.061Z,-108.00
2022-10-17T03:25:36.281Z,-144.00
2022-10-17T03:30:43.490Z,-108.00
2022-10-17T03:40:57.797Z,-108.00
2022-10-17T03:46:05.290Z,-144.00
2022-10-17T03:51:12.244Z,-108.00
2022-10-17T03:56:19.463Z,-108.00
2022-10-17T04:01:26.767Z,-108.00
2022-10-17T04:06:33.869Z,-108.00
2022-10-17T04:11:41.083Z,-108.00
2022-10-17T04:16:48.345Z,-108.00
2022-10-17T04:21:55.592Z,-108.00
2022-10-17T04:27:02.836Z,-108.00
2022-10-17T04:32:10.120Z,-108.00
2022-10-17T04:37:17.358Z,-144.00
2022-10-17T04:42:24.606Z,-144.00
2022-10-17T04:47:31.848Z,-144.00
2022-10-17T04:52:39.025Z,-144.00
2022-10-17T04:57:46.208Z,-144.00
2022-10-17T05:02:53.471Z,-144.00
2022-10-17T05:08:00.658Z,-144.00
2022-10-17T05:13:07.843Z,-108.00
2022-10-17T05:18:15.062Z,-108.00
2022-10-17T05:23:22.232Z,-108.00
2022-10-17T05:28:29.627Z,-108.00
2022-10-17T05:33:36.813Z,-108.00
2022-10-17T05:38:43.960Z,-108.00
2022-10-17T05:43:51.143Z,-108.00
2022-10-17T05:48:58.427Z,-108.00
2022-10-17T05:54:05.564Z,-108.00
2022-10-17T05:59:12.795Z,-108.00
2022-10-17T06:04:20.135Z,-72.00
2022-10-17T06:09:27.136Z,-72.00
2022-10-17T06:14:34.382Z,-72.00
2022-10-17T06:19:41.594Z,4824.00
2022-10-17T06:24:48.726Z,5220.00
2022-10-17T06:29:55.993Z,5472.00
2022-10-17T06:35:03.267Z,5832.00
2022-10-17T06:40:10.401Z,9144.00
2022-10-17T06:45:17.636Z,9504.00
2022-10-17T06:50:25.056Z,9828.00
2022-10-17T06:55:32.326Z,9936.00
2022-10-17T07:00:39.717Z,10260.00
2022-10-17T07:05:46.859Z,10404.00
2022-10-17T07:10:54.035Z,10620.00
2022-10-17T07:16:01.281Z,10836.00
2022-10-17T07:21:08.556Z,11016.00
2022-10-17T07:26:15.755Z,11196.00
2022-10-17T07:31:23.174Z,11304.00
2022-10-17T07:36:30.609Z,11448.00
2022-10-17T07:41:37.820Z,11628.00
2022-10-17T07:46:45.004Z,11736.00
2022-10-17T07:51:52.254Z,11844.00
2022-10-17T07:56:59.469Z,11916.00
2022-10-17T08:02:06.696Z,12024.00
2022-10-17T08:07:20.958Z,12168.00
2022-10-17T08:12:21.261Z,12276.00
2022-10-17T08:17:28.438Z,12312.00
2022-10-17T08:22:37.697Z,12384.00
2022-10-17T08:27:44.893Z,12456.00
2022-10-17T08:32:52.188Z,12564.00
2022-10-17T08:37:59.429Z,12780.00
2022-10-17T08:43:06.599Z,12816.00
2022-10-17T08:48:13.754Z,13104.00
2022-10-17T08:53:20.971Z,13536.00
2022-10-17T08:58:28.137Z,13896.00
2022-10-17T09:03:35.417Z,13932.00
2022-10-17T09:08:42.736Z,13824.00
2022-10-17T09:13:49.896Z,14256.00
2022-10-17T09:18:57.097Z,14364.00
2022-10-17T09:24:09.710Z,14544.00
2022-10-17T09:29:11.547Z,14076.00
2022-10-17T09:34:18.777Z,14256.00
2022-10-17T09:39:26.073Z,14328.00
2022-10-17T09:44:33.274Z,14292.00
2022-10-17T09:49:40.511Z,14796.00
2022-10-17T09:54:47.749Z,15372.00
2022-10-17T09:59:55.179Z,15516.00
2022-10-17T10:05:05.600Z,15444.00
2022-10-17T10:10:09.943Z,15048.00
2022-10-17T10:15:17.179Z,14832.00
2022-10-17T10:20:24.391Z,15012.00
2022-10-17T10:25:31.631Z,16236.00
2022-10-17T10:30:41.783Z,16416.00
2022-10-17T10:35:49.025Z,16020.00
2022-10-17T10:40:56.209Z,16380.00
2022-10-17T10:46:03.389Z,16740.00
2022-10-17T10:51:10.589Z,15876.00
2022-10-17T10:56:17.879Z,14760.00
2022-10-17T11:01:25.014Z,14580.00
2022-10-17T11:06:32.220Z,14724.00
2022-10-17T11:11:39.441Z,14472.00
2022-10-17T11:16:46.805Z,14724.00
2022-10-17T11:21:54.031Z,14436.00
2022-10-17T11:27:01.269Z,14040.00
2022-10-17T11:32:08.437Z,14292.00
2022-10-17T11:37:15.858Z,14256.00
2022-10-17T11:42:23.092Z,14652.00
2022-10-17T11:47:30.263Z,14148.00
2022-10-17T11:52:55.515Z,13104.00
2022-10-17T11:57:44.717Z,13680.00
2022-10-17T12:02:51.875Z,13968.00
2022-10-17T12:07:59.122Z,14184.00
2022-10-17T12:13:06.399Z,13572.00
2022-10-17T12:18:13.619Z,13356.00
2022-10-17T12:23:20.791Z,13284.00
2022-10-17T12:28:28.112Z,13284.00
2022-10-17T12:33:35.199Z,13752.00
2022-10-17T12:38:43.094Z,13176.00
2022-10-17T12:48:57.590Z,12636.00
2022-10-17T12:54:04.869Z,13320.00
2022-10-17T12:59:12.066Z,13500.00
2022-10-17T13:04:19.239Z,13068.00
2022-10-17T13:09:26.459Z,13752.00
2022-10-17T13:14:34.536Z,13140.00
2022-10-17T13:19:41.807Z,11988.00
2022-10-17T13:24:49.030Z,11520.00
2022-10-17T13:29:56.274Z,11628.00
2022-10-17T13:35:03.601Z,12168.00
2022-10-17T13:40:30.895Z,11880.00
2022-10-17T13:45:18.092Z,11520.00
2022-10-17T13:50:42.997Z,12132.00
2022-10-17T13:55:32.532Z,13428.00
2022-10-17T14:00:39.781Z,12456.00
2022-10-17T14:05:46.900Z,13284.00
2022-10-17T14:10:54.144Z,11664.00
2022-10-17T14:16:01.405Z,11160.00
2022-10-17T14:21:36.885Z,11700.00
2022-10-17T14:26:15.763Z,11592.00
2022-10-17T14:31:27.454Z,11304.00
2022-10-17T14:36:34.666Z,10908.00
2022-10-17T14:41:43.517Z,11484.00
2022-10-17T14:46:51.013Z,12024.00
2022-10-17T14:52:03.903Z,11376.00
2022-10-17T14:57:03.580Z,11160.00
2022-10-17T15:02:10.833Z,11304.00
2022-10-17T15:07:18.070Z,11016.00
2022-10-17T15:12:25.561Z,9864.00
2022-10-17T15:17:32.571Z,9216.00
2022-10-17T15:22:39.767Z,9252.00
2022-10-17T15:27:46.948Z,9072.00
2022-10-17T15:32:54.162Z,8892.00
2022-10-17T15:38:01.305Z,8280.00
2022-10-17T15:43:08.471Z,7776.00
2022-10-17T15:48:15.816Z,7776.00
2022-10-17T15:53:23.040Z,7416.00
2022-10-17T15:58:30.278Z,6840.00
2022-10-17T16:03:37.492Z,6084.00
2022-10-17T16:08:44.662Z,5004.00
2022-10-17T16:13:51.863Z,3852.00
2022-10-17T16:18:59.093Z,2916.00
2022-10-17T16:24:06.269Z,1980.00
2022-10-17T16:29:13.500Z,1008.00
2022-10-17T16:34:20.695Z,360.00
2022-10-17T16:44:35.103Z,-36.00
2022-10-17T16:49:45.196Z,-72.00
2022-10-17T16:54:49.544Z,-108.00
2022-10-17T16:59:56.837Z,-108.00
2022-10-17T17:05:04.353Z,-144.00
2022-10-17T17:10:11.645Z,-108.00
2022-10-17T17:15:18.889Z,-144.00
2022-10-17T17:20:26.234Z,-108.00
2022-10-17T17:25:33.462Z,-144.00
2022-10-17T17:30:40.706Z,-144.00
2022-10-17T17:35:48.632Z,-108.00
2022-10-17T17:40:55.752Z,-144.00
2022-10-17T17:46:02.990Z,-108.00
2022-10-17T17:51:10.410Z,-108.00
2022-10-17T17:56:18.011Z,-144.00
2022-10-17T18:01:25.374Z,-108.00
2022-10-17T18:06:32.855Z,-108.00
2022-10-17T18:11:40.165Z,-144.00
2022-10-17T18:16:47.750Z,-108.00
2022-10-17T18:21:55.386Z,-108.00
2022-10-17T18:27:02.976Z,-108.00
2022-10-17T18:32:10.585Z,-108.00
2022-10-17T18:37:17.954Z,-144.00
2022-10-17T18:42:25.309Z,-144.00
2022-10-17T18:47:33.334Z,-108.00
2022-10-17T18:52:41.071Z,-144.00
2022-10-17T18:57:48.661Z,-108.00
2022-10-17T19:02:56.271Z,-144.00
2022-10-17T19:08:03.661Z,-108.00
2022-10-17T19:13:11.203Z,-108.00
2022-10-17T19:18:18.559Z,-144.00
2022-10-17T19:23:25.851Z,-108.00
2022-10-17T19:28:33.289Z,-108.00
2022-10-17T19:33:40.666Z,-108.00
2022-10-17T19:38:47.923Z,-108.00
2022-10-17T19:43:55.147Z,-108.00
2022-10-17T19:49:02.661Z,-108.00
2022-10-17T19:54:10.101Z,-108.00
2022-10-17T19:59:17.421Z,-144.00
2022-10-17T20:04:24.608Z,-108.00
2022-10-17T20:09:32.532Z,-108.00
2022-10-17T20:14:41.168Z,-108.00
2022-10-17T20:19:47.018Z,-144.00
2022-10-17T20:24:54.268Z,-108.00
2022-10-17T20:30:01.428Z,-108.00
2022-10-17T20:35:08.617Z,-108.00
2022-10-17T20:40:34.141Z,-108.00
2022-10-17T20:45:37.383Z,-144.00
2022-10-17T20:50:30.259Z,-108.00
2022-10-17T20:55:37.513Z,-144.00
2022-10-17T21:00:44.716Z,1764.00
2022-10-17T21:05:51.965Z,1728.00
2022-10-17T21:10:59.188Z,1692.00
2022-10-17T21:16:06.454Z,8568.00
2022-10-17T21:21:13.706Z,8676.00
2022-10-17T21:26:20.904Z,8640.00
2022-10-17T21:31:28.033Z,8532.00
2022-10-17T21:36:35.251Z,8532.00
2022-10-17T21:41:42.437Z,8640.00
2022-10-17T21:46:49.803Z,8640.00
2022-10-17T21:51:56.974Z,8640.00
2022-10-17T21:57:04.346Z,8640.00
2022-10-17T22:02:11.415Z,8640.00
2022-10-17T22:07:18.646Z,8568.00
2022-10-17T22:12:28.375Z,8604.00
2022-10-17T22:17:35.372Z,8532.00
2022-10-17T22:22:42.668Z,8532.00
2022-10-17T22:27:49.938Z,-108.00
2022-10-17T22:32:57.070Z,-144.00
2022-10-17T22:38:04.304Z,-144.00
2022-10-17T22:43:11.538Z,-108.00
2022-10-17T22:48:18.658Z,-108.00
2022-10-17T22:53:27.242Z,-108.00
2022-10-17T22:58:34.487Z,-144.00
2022-10-17T23:03:41.663Z,-144.00
2022-10-17T23:08:48.897Z,-108.00
2022-10-17T23:13:56.133Z,-144.00
2022-10-17T23:19:03.292Z,-108.00
2022-10-17T23:24:12.627Z,-144.00
2022-10-17T23:29:19.867Z,-108.00
2022-10-17T23:34:27.014Z,-144.00
2022-10-17T23:39:34.274Z,-144.00
2022-10-17T23:44:41.497Z,-108.00
2022-10-17T23:49:48.725Z,-144.00
2022-10-17T23:54:55.948Z,-108.00
